createdAt,value
2019-05-22T16:50:57.525Z,18.88
2019-05-22T16:55:57.243Z,18.84
2019-05-22T17:00:57.609Z,18.92
2019-05-22T17:05:58.479Z,18.75
2019-05-22T17:10:58.675Z,18.8
2019-05-22T17:16:00.687Z,18.69
2019-05-22T17:21:02.029Z,18.7
2019-05-22T17:26:02.179Z,18.66
2019-05-22T17:31:02.303Z,18.67
2019-05-22T17:36:10.764Z,18.66
2019-05-22T17:41:11.069Z,18.7
2019-05-22T17:46:11.675Z,18.75
2019-05-22T17:51:13.059Z,18.63
2019-05-22T17:56:13.090Z,18.63
2019-05-22T18:01:13.247Z,18.51
2019-05-22T18:06:13.451Z,18.42
2019-05-22T18:11:13.465Z,18.23
2019-05-22T18:16:13.594Z,18.15
2019-05-22T18:21:14.015Z,17.9
2019-05-22T18:26:14.054Z,17.77
2019-05-22T18:31:20.428Z,17.68
2019-05-22T18:36:20.546Z,17.54
2019-05-22T18:41:20.591Z,17.42
2019-05-22T18:46:20.637Z,17.35
2019-05-22T18:51:20.688Z,17.31
2019-05-22T18:56:20.760Z,17.14
2019-05-22T19:01:20.900Z,16.95
2019-05-22T19:06:29.949Z,16.82
2019-05-22T19:11:21.071Z,16.73
2019-05-22T19:16:21.344Z,16.6
2019-05-22T19:21:21.387Z,16.33
2019-05-22T19:26:27.750Z,16.16
2019-05-22T19:31:27.784Z,16.11
2019-05-22T19:36:27.906Z,15.94
2019-05-22T19:41:27.933Z,15.88
2019-05-22T19:46:27.977Z,15.91
2019-05-22T19:51:28.092Z,15.85
2019-05-22T19:56:28.141Z,15.78
2019-05-22T20:01:28.213Z,15.73
2019-05-22T20:06:28.327Z,15.69
2019-05-22T20:11:28.364Z,15.56
2019-05-22T20:16:28.407Z,15.52
2019-05-22T20:21:35.037Z,15.44
2019-05-22T20:26:35.010Z,15.36
2019-05-22T20:31:35.263Z,15.37
2019-05-22T20:36:35.301Z,15.32
2019-05-22T20:41:35.337Z,15.23
2019-05-22T20:46:37.688Z,15.1
2019-05-22T20:51:35.426Z,15.06
2019-05-22T20:56:35.770Z,15.04
2019-05-22T21:01:35.542Z,15.04
2019-05-22T21:06:35.654Z,14.94
2019-05-22T21:11:35.665Z,14.82
2019-05-22T21:16:42.079Z,14.71
2019-05-22T21:21:42.200Z,14.7
2019-05-22T21:26:42.194Z,14.67
2019-05-22T21:31:42.682Z,14.6
2019-05-22T21:36:42.310Z,14.48
2019-05-22T21:41:42.330Z,14.45
2019-05-22T21:46:42.448Z,14.43
2019-05-22T21:51:42.486Z,14.29
2019-05-22T21:56:42.513Z,14.26
2019-05-22T22:01:42.628Z,14.23
2019-05-22T22:06:42.661Z,14.18
2019-05-22T22:11:47.005Z,14.09
2019-05-22T22:16:47.054Z,14.07
2019-05-22T22:21:47.170Z,13.97
2019-05-22T22:26:47.219Z,13.95
2019-05-22T22:31:47.245Z,13.96
2019-05-22T22:36:47.362Z,13.93
2019-05-22T22:41:47.374Z,13.88
2019-05-22T22:46:47.414Z,13.84
2019-05-22T22:51:47.498Z,13.75
2019-05-22T22:56:47.577Z,13.73
2019-05-22T23:01:47.625Z,13.7
2019-05-22T23:06:55.975Z,13.62
2019-05-22T23:11:56.014Z,13.55
2019-05-22T23:16:56.052Z,13.35
2019-05-22T23:21:56.170Z,13.37
2019-05-22T23:26:56.206Z,13.33
2019-05-22T23:31:56.296Z,13.22
2019-05-22T23:36:56.351Z,13.13
2019-05-22T23:41:56.611Z,13.09
2019-05-22T23:46:56.492Z,13.11
2019-05-22T23:51:56.608Z,13.07
2019-05-22T23:56:56.788Z,12.98
